Time;durP1;ratioP1;P1;durP2;ratioP2;P2;SDS_P1;SDS_P2;PMS_P1;PMS_P2;Temp;Humidity;BMP_temperature;BMP_pressure;BME280_temperature;BME280_humidity;BME280_pressure;Samples;Min_cycle;Max_cycle;Signal;HPM_P1;HPM_P2
2021/09/22 00:00:45;;;;;;;5.37;3.83;;;11.20;99.90;11.20;101506.00;;;;4973620;28;92958;-64
2021/09/22 00:03:10;;;;;;;4.27;3.53;;;11.20;99.90;11.20;101494.00;;;;4971260;28;104896;-64
2021/09/22 00:05:36;;;;;;;9.23;3.57;;;11.30;99.90;11.20;101499.00;;;;4972086;28;123323;-65
2021/09/22 00:08:02;;;;;;;4.67;3.63;;;11.20;99.90;11.30;101504.00;;;;4971878;28;111401;-65
2021/09/22 00:10:28;;;;;;;4.43;3.53;;;11.20;99.90;11.30;101494.00;;;;4972227;28;107551;-64
2021/09/22 00:12:54;;;;;;;6.13;3.73;;;11.30;99.90;11.30;101494.00;;;;4971905;28;121491;-64
2021/09/22 00:15:22;;;;;;;6.43;3.57;;;11.30;99.90;11.30;101485.00;;;;4972541;28;93758;-65
2021/09/22 00:17:48;;;;;;;5.30;2.80;;;11.30;99.90;11.30;101485.00;;;;4972669;28;92744;-64
2021/09/22 00:20:15;;;;;;;6.60;3.70;;;11.30;99.90;11.30;101487.00;;;;4973825;28;92207;-64
2021/09/22 00:22:42;;;;;;;6.50;3.80;;;11.30;99.90;11.30;101496.00;;;;4968813;28;101974;-63
2021/09/22 00:25:10;;;;;;;5.17;3.70;;;11.30;99.90;11.30;101490.00;;;;4967533;28;94608;-64
2021/09/22 00:27:37;;;;;;;3.87;3.30;;;11.40;99.90;11.40;101496.00;;;;4973016;28;94148;-64
2021/09/22 00:30:05;;;;;;;7.53;3.47;;;11.40;99.90;11.40;101499.00;;;;4975198;28;92859;-64
2021/09/22 00:32:30;;;;;;;4.63;3.40;;;11.40;99.90;11.40;101496.00;;;;4975512;28;93155;-66
2021/09/22 00:34:56;;;;;;;5.37;4.10;;;11.40;99.90;11.40;101497.00;;;;4974939;28;123474;-63
2021/09/22 00:37:22;;;;;;;6.30;3.33;;;11.40;99.90;11.40;101497.00;;;;4975309;28;110791;-64
2021/09/22 00:39:47;;;;;;;4.37;3.83;;;11.40;99.90;11.40;101500.00;;;;4975493;28;100005;-64
2021/09/22 00:42:13;;;;;;;7.77;3.30;;;11.40;99.90;11.40;101503.00;;;;4975490;28;123388;-63
2021/09/22 00:44:56;;;;;;;5.77;3.43;;;11.40;99.90;11.40;101499.00;;;;4975354;28;100224;-63
2021/09/22 00:47:24;;;;;;;4.17;3.50;;;11.40;99.90;11.50;101494.00;;;;4975808;28;92625;-65
2021/09/22 00:49:50;;;;;;;4.97;3.57;;;11.50;99.90;11.50;101498.00;;;;4975248;28;92749;-64
2021/09/22 00:52:17;;;;;;;7.33;3.63;;;11.50;99.90;11.50;101488.00;;;;4974832;28;109807;-65
2021/09/22 00:54:44;;;;;;;3.80;2.87;;;11.50;99.90;11.50;101490.00;;;;4975483;28;94716;-65
2021/09/22 00:57:13;;;;;;;5.70;3.27;;;11.50;99.90;11.50;101492.00;;;;4975485;28;92856;-66
2021/09/22 00:59:39;;;;;;;3.43;3.13;;;11.50;99.90;11.50;101492.00;;;;4975744;28;92852;-66
2021/09/22 01:02:07;;;;;;;3.17;2.87;;;11.50;99.90;11.50;101490.00;;;;4975654;28;92823;-65
2021/09/22 01:04:33;;;;;;;6.87;3.43;;;11.50;99.90;11.50;101491.00;;;;4975468;28;93089;-65
2021/09/22 01:06:59;;;;;;;6.57;3.40;;;11.50;99.90;11.50;101488.00;;;;4976019;28;92755;-65
2021/09/22 01:09:27;;;;;;;4.87;3.43;;;11.50;99.90;11.60;101490.00;;;;4974782;28;91950;-65
2021/09/22 01:11:53;;;;;;;4.53;2.93;;;11.60;99.90;11.60;101485.00;;;;4975098;28;120592;-66
2021/09/22 01:14:26;;;;;;;5.83;3.10;;;11.50;99.90;11.60;101482.00;;;;4974651;28;99395;-65
2021/09/22 01:16:53;;;;;;;5.87;3.40;;;11.60;99.90;11.60;101480.00;;;;4975299;28;93914;-64
2021/09/22 01:19:20;;;;;;;2.90;2.27;;;11.60;99.90;11.60;101481.00;;;;4975967;28;92894;-64
2021/09/22 01:21:50;;;;;;;3.60;2.53;;;11.60;99.90;11.60;101477.00;;;;4975399;28;93263;-65
2021/09/22 01:24:17;;;;;;;7.37;2.53;;;11.60;99.90;11.60;101468.00;;;;4974799;28;93038;-65
2021/09/22 01:26:43;;;;;;;6.93;3.50;;;11.60;99.90;11.60;101468.00;;;;4974743;28;92780;-65
2021/09/22 01:29:09;;;;;;;5.10;3.47;;;11.60;99.90;11.60;101470.00;;;;4974906;28;92948;-64
2021/09/22 01:31:38;;;;;;;4.00;2.83;;;11.60;99.90;11.60;101472.00;;;;4975048;28;92981;-64
2021/09/22 01:34:06;;;;;;;4.97;2.97;;;11.60;99.90;11.60;101477.00;;;;4965428;28;93044;-65
2021/09/22 01:36:32;;;;;;;5.23;3.00;;;11.60;99.90;11.60;101471.00;;;;4974731;28;92643;-65
2021/09/22 01:38:58;;;;;;;4.73;3.50;;;11.60;99.90;11.60;101479.00;;;;4975236;28;92950;-65
2021/09/22 01:41:24;;;;;;;5.87;3.30;;;11.60;99.90;11.60;101474.00;;;;4972418;28;105595;-64
2021/09/22 01:43:50;;;;;;;3.40;3.00;;;11.70;99.90;11.70;101468.00;;;;4974722;28;104462;-63
2021/09/22 01:46:16;;;;;;;4.23;3.10;;;11.70;99.90;11.70;101470.00;;;;4975451;28;92745;-63
2021/09/22 01:48:42;;;;;;;3.77;2.63;;;11.70;99.90;11.70;101469.00;;;;4974074;28;110054;-65
2021/09/22 01:51:09;;;;;;;4.60;3.10;;;11.60;99.90;11.70;101470.00;;;;4975083;28;93501;-65
2021/09/22 01:53:36;;;;;;;4.73;2.80;;;11.70;99.90;11.60;101462.00;;;;4974565;28;92891;-65
2021/09/22 01:56:04;;;;;;;4.07;2.90;;;11.60;99.90;11.60;101480.00;;;;4975299;28;92823;-65
2021/09/22 01:58:31;;;;;;;2.77;2.50;;;11.60;99.90;11.60;101472.00;;;;4975808;28;92262;-63
2021/09/22 02:01:05;;;;;;;3.50;2.97;;;11.60;99.90;11.60;101478.00;;;;4974624;28;93891;-63
2021/09/22 02:03:31;;;;;;;3.07;2.40;;;11.60;99.90;11.60;101484.00;;;;4974539;28;95900;-63
2021/09/22 02:05:57;;;;;;;4.10;2.37;;;11.60;99.90;11.60;101469.00;;;;4975960;28;93803;-63
2021/09/22 02:08:23;;;;;;;4.93;3.30;;;11.60;99.90;11.60;101479.00;;;;4985138;28;101745;-63
2021/09/22 02:10:49;;;;;;;3.17;2.20;;;11.60;99.90;11.70;101474.00;;;;4973212;28;118203;-64
2021/09/22 02:13:15;;;;;;;4.83;3.03;;;11.60;99.90;11.70;101478.00;;;;4974267;28;93480;-62
2021/09/22 02:15:41;;;;;;;4.20;2.73;;;11.70;99.90;11.70;101482.00;;;;4974740;28;93126;-63
2021/09/22 02:18:08;;;;;;;3.50;2.97;;;11.70;99.90;11.70;101469.00;;;;4973385;28;110226;-62
2021/09/22 02:20:35;;;;;;;3.97;3.03;;;11.70;99.90;11.80;101474.00;;;;4973978;28;94021;-63
2021/09/22 02:23:01;;;;;;;6.13;3.23;;;11.70;99.90;11.80;101459.00;;;;4974864;28;92834;-63
2021/09/22 02:25:27;;;;;;;4.87;2.37;;;11.70;99.90;11.80;101462.00;;;;4975021;28;93022;-64
2021/09/22 02:27:52;;;;;;;6.60;3.00;;;11.80;99.90;11.80;101465.00;;;;4968522;28;108160;-63
2021/09/22 02:30:21;;;;;;;4.87;3.40;;;11.80;99.90;11.80;101454.00;;;;4951044;28;122053;-63
2021/09/22 02:32:47;;;;;;;3.33;2.87;;;11.80;99.90;11.80;101458.00;;;;4973699;28;94889;-65
2021/09/22 02:35:14;;;;;;;4.80;3.40;;;11.80;99.90;11.90;101457.00;;;;4974449;28;92960;-64
2021/09/22 02:37:40;;;;;;;4.57;2.67;;;11.80;99.90;11.90;101453.00;;;;4974059;28;94124;-64
2021/09/22 02:40:14;;;;;;;3.70;2.37;;;11.50;99.90;11.90;101458.00;;;;4973446;28;103919;-64
2021/09/22 02:42:41;;;;;;;6.07;2.97;;;11.90;99.90;11.90;101464.00;;;;4973812;28;93553;-64
2021/09/22 02:45:08;;;;;;;7.30;3.13;;;11.90;99.90;11.90;101456.00;;;;4961272;28;92864;-64
2021/09/22 02:47:34;;;;;;;6.80;2.60;;;11.90;99.90;11.90;101459.00;;;;4973517;28;92377;-63
2021/09/22 02:49:59;;;;;;;2.80;2.47;;;11.90;99.90;12.00;101451.00;;;;4963265;28;122941;-64
2021/09/22 02:52:25;;;;;;;3.10;2.80;;;12.00;99.90;12.00;101455.00;;;;4972067;28;123789;-63
2021/09/22 02:54:51;;;;;;;3.67;2.40;;;12.00;99.90;12.00;101465.00;;;;4973172;28;110337;-63
2021/09/22 02:57:17;;;;;;;7.63;2.87;;;12.00;99.90;12.00;101467.00;;;;4973777;28;107811;-63
2021/09/22 02:59:43;;;;;;;3.03;2.47;;;12.00;99.90;12.00;101475.00;;;;4972956;28;123132;-63
2021/09/22 03:02:08;;;;;;;6.57;3.20;;;12.00;99.90;12.00;101470.00;;;;4973736;28;92908;-64
2021/09/22 03:04:34;;;;;;;5.57;2.97;;;12.00;99.90;12.10;101473.00;;;;4963448;28;97687;-63
2021/09/22 03:07:00;;;;;;;5.70;2.70;;;12.00;99.90;12.10;101466.00;;;;4973823;28;92690;-62
2021/09/22 03:09:26;;;;;;;3.73;2.87;;;12.10;99.90;12.10;101465.00;;;;4972038;28;123739;-62
2021/09/22 03:11:53;;;;;;;9.00;3.93;;;12.10;99.90;12.10;101457.00;;;;4972503;28;123401;-64
2021/09/22 03:14:19;;;;;;;8.33;3.30;;;12.10;99.90;12.10;101455.00;;;;4965405;28;93117;-63
2021/09/22 03:16:44;;;;;;;8.43;3.03;;;12.10;99.90;12.10;101457.00;;;;4974395;28;92789;-64
2021/09/22 03:19:10;;;;;;;3.50;2.40;;;12.10;99.90;12.00;101457.00;;;;4969827;28;114712;-62
2021/09/22 03:21:36;;;;;;;6.83;3.47;;;12.00;99.90;12.00;101454.00;;;;4952860;28;122536;-62
2021/09/22 03:24:01;;;;;;;10.53;2.73;;;12.00;99.90;12.00;101459.00;;;;4964646;28;110559;-64
2021/09/22 03:26:27;;;;;;;4.57;3.03;;;12.00;99.90;11.90;101463.00;;;;4972671;28;92670;-63
2021/09/22 03:28:53;;;;;;;5.13;2.90;;;12.00;99.90;11.90;101466.00;;;;4954615;28;93292;-64
2021/09/22 03:31:19;;;;;;;10.20;3.43;;;11.90;99.90;11.80;101477.00;;;;4973381;28;101621;-63
2021/09/22 03:33:44;;;;;;;4.77;2.50;;;11.80;99.90;11.80;101473.00;;;;4972440;28;100237;-63
2021/09/22 03:36:11;;;;;;;4.73;2.87;;;11.80;99.90;11.80;101479.00;;;;4973644;28;108714;-63
2021/09/22 03:38:36;;;;;;;7.43;2.57;;;11.80;99.90;11.80;101482.00;;;;4972931;28;93167;-63
2021/09/22 03:41:03;;;;;;;5.27;3.13;;;11.80;99.90;11.80;101479.00;;;;4972808;28;97414;-63
2021/09/22 03:43:28;;;;;;;3.13;2.83;;;11.80;99.90;11.80;101480.00;;;;4972574;28;93698;-64
2021/09/22 03:45:54;;;;;;;5.77;3.23;;;11.80;99.90;11.80;101480.00;;;;4972278;28;109353;-63
2021/09/22 03:48:20;;;;;;;2.67;2.33;;;11.80;99.90;11.70;101481.00;;;;4972567;28;105424;-64
2021/09/22 03:50:48;;;;;;;3.83;2.37;;;11.80;99.90;11.70;101484.00;;;;4972911;28;93544;-63
2021/09/22 03:53:19;;;;;;;4.60;3.00;;;11.70;99.90;11.70;101490.00;;;;4973090;28;93290;-63
2021/09/22 03:55:45;;;;;;;3.60;2.63;;;11.70;99.90;11.60;101496.00;;;;4973761;28;92807;-63
2021/09/22 03:58:13;;;;;;;4.30;2.47;;;11.70;99.90;11.60;101487.00;;;;4943155;28;95399;-65
2021/09/22 04:00:40;;;;;;;3.63;2.40;;;11.60;99.90;11.60;101491.00;;;;4972550;28;103910;-63
2021/09/22 04:03:06;;;;;;;3.13;2.63;;;11.60;99.90;11.50;101490.00;;;;4973489;28;92802;-63
2021/09/22 04:05:32;;;;;;;4.40;3.23;;;11.60;99.90;11.50;101489.00;;;;4975248;28;110268;-62
2021/09/22 04:07:57;;;;;;;5.20;2.67;;;11.50;99.90;11.50;101496.00;;;;4955864;28;123652;-63
2021/09/22 04:10:23;;;;;;;8.67;3.30;;;11.50;99.90;11.60;101494.00;;;;4971649;28;122984;-64
2021/09/22 04:12:49;;;;;;;5.57;2.80;;;11.60;99.90;11.60;101500.00;;;;4976219;28;93982;-64
2021/09/22 04:15:15;;;;;;;5.47;2.73;;;11.60;99.90;11.50;101501.00;;;;4976074;28;109031;-62
2021/09/22 04:17:40;;;;;;;7.60;2.93;;;11.60;99.90;11.50;101489.00;;;;4974722;28;122499;-65
2021/09/22 04:20:08;;;;;;;6.20;2.97;;;11.50;99.90;11.50;101496.00;;;;4976272;28;108325;-62
2021/09/22 04:22:34;;;;;;;4.73;3.10;;;11.50;99.90;11.50;101486.00;;;;4975943;28;93251;-63
2021/09/22 04:25:01;;;;;;;4.30;3.00;;;11.50;99.90;11.50;101499.00;;;;4976415;28;92231;-64
2021/09/22 04:27:26;;;;;;;6.90;3.40;;;11.50;99.90;11.40;101496.00;;;;4990352;28;93372;-63
2021/09/22 04:29:52;;;;;;;8.40;3.27;;;11.50;99.90;11.40;101502.00;;;;4975700;28;100143;-63
2021/09/22 04:32:18;;;;;;;4.60;3.37;;;11.40;99.90;11.40;101493.00;;;;4975329;28;110781;-64
2021/09/22 04:34:43;;;;;;;6.20;2.70;;;11.40;99.90;11.40;101509.00;;;;4975452;28;109117;-64
2021/09/22 04:37:09;;;;;;;5.13;2.87;;;11.40;99.90;11.30;101497.00;;;;4975533;28;105695;-63
2021/09/22 04:39:36;;;;;;;3.70;2.37;;;11.40;99.90;11.30;101508.00;;;;4975954;28;93045;-63
2021/09/22 04:42:02;;;;;;;4.77;2.73;;;11.30;99.90;11.30;101509.00;;;;4976200;28;92870;-64
2021/09/22 04:44:28;;;;;;;13.53;3.63;;;11.30;99.90;11.30;101500.00;;;;4975039;28;93084;-63
2021/09/22 04:46:54;;;;;;;5.20;3.17;;;11.30;99.90;11.40;101513.00;;;;4974791;28;112490;-63
2021/09/22 04:49:19;;;;;;;9.17;2.80;;;11.40;99.90;11.40;101504.00;;;;4973443;28;92638;-64
2021/09/22 04:51:45;;;;;;;6.17;3.60;;;11.40;99.90;11.40;101498.00;;;;4976002;28;92769;-64
2021/09/22 04:54:11;;;;;;;7.50;3.13;;;11.40;99.90;11.40;101503.00;;;;4974346;28;108755;-64
2021/09/22 04:56:37;;;;;;;2.83;2.50;;;11.40;99.90;11.40;101505.00;;;;4973476;28;123375;-64
2021/09/22 04:59:02;;;;;;;5.17;2.93;;;11.40;99.90;11.40;101499.00;;;;4973334;28;124135;-64
2021/09/22 05:01:28;;;;;;;2.00;1.80;;;11.40;99.90;11.50;101496.00;;;;4975072;28;105376;-64
2021/09/22 05:03:54;;;;;;;4.03;3.30;;;11.50;99.90;11.50;101505.00;;;;4966173;28;109545;-64
2021/09/22 05:06:19;;;;;;;4.40;2.93;;;11.50;99.90;11.50;101506.00;;;;4974259;28;122413;-64
2021/09/22 05:08:45;;;;;;;7.37;3.10;;;11.60;99.90;11.50;101504.00;;;;4974846;28;94153;-64
2021/09/22 05:11:11;;;;;;;5.43;2.73;;;11.50;99.90;11.50;101503.00;;;;4975759;28;92949;-64
2021/09/22 05:13:36;;;;;;;6.93;2.60;;;11.50;99.90;11.50;101511.00;;;;4975442;28;108741;-63
2021/09/22 05:16:02;;;;;;;6.40;3.43;;;11.50;99.90;11.50;101508.00;;;;4974064;28;93879;-64
2021/09/22 05:18:28;;;;;;;6.93;3.20;;;11.50;99.90;11.50;101518.00;;;;4974741;28;106441;-63
2021/09/22 05:20:53;;;;;;;5.23;2.90;;;11.50;99.90;11.50;101519.00;;;;4974719;28;110812;-64
2021/09/22 05:23:19;;;;;;;4.40;2.57;;;11.50;99.90;11.60;101515.00;;;;4974724;28;107076;-62
2021/09/22 05:25:45;;;;;;;4.43;2.67;;;11.60;99.90;11.60;101522.00;;;;4975786;28;93358;-63
2021/09/22 05:28:11;;;;;;;4.37;2.47;;;11.60;99.90;11.60;101531.00;;;;4974728;28;104336;-63
2021/09/22 05:30:36;;;;;;;3.73;2.40;;;11.60;99.90;11.60;101537.00;;;;4975584;28;92961;-63
2021/09/22 05:33:02;;;;;;;6.93;2.53;;;11.60;99.90;11.70;101535.00;;;;4973898;28;93283;-63
2021/09/22 05:35:28;;;;;;;12.90;4.10;;;11.70;99.90;11.70;101545.00;;;;4972911;28;93259;-62
2021/09/22 05:37:54;;;;;;;9.37;2.47;;;11.70;99.90;11.80;101541.00;;;;4974489;28;103932;-63
2021/09/22 05:40:20;;;;;;;6.90;2.87;;;11.60;99.90;11.90;101541.00;;;;4975996;28;92946;-64
2021/09/22 05:42:45;;;;;;;5.20;3.13;;;11.90;99.90;12.00;101541.00;;;;4956376;28;107203;-64
2021/09/22 05:45:14;;;;;;;9.33;2.60;;;11.90;99.90;12.00;101540.00;;;;4965833;28;105775;-63
2021/09/22 05:47:40;;;;;;;3.80;2.60;;;12.00;99.90;12.10;101549.00;;;;4974151;28;94075;-64
2021/09/22 05:50:07;;;;;;;7.70;2.90;;;12.10;99.90;12.20;101545.00;;;;4975233;28;93184;-63
2021/09/22 05:52:33;;;;;;;12.47;2.73;;;12.10;99.90;12.20;101555.00;;;;4970334;28;93133;-63
2021/09/22 05:54:58;;;;;;;11.03;3.23;;;12.20;99.90;12.30;101546.00;;;;4973607;28;102852;-62
2021/09/22 05:57:24;;;;;;;10.70;2.17;;;12.20;99.90;12.40;101554.00;;;;4974367;28;92949;-63
2021/09/22 05:59:50;;;;;;;11.23;3.33;;;12.30;99.90;12.50;101556.00;;;;4974426;28;111787;-64
2021/09/22 06:02:17;;;;;;;3.33;1.97;;;12.40;99.90;12.60;101559.00;;;;4975567;28;91992;-63
2021/09/22 06:04:42;;;;;;;3.33;2.37;;;12.50;99.90;12.60;101563.00;;;;4974099;28;94824;-62
2021/09/22 06:07:08;;;;;;;7.20;2.40;;;12.50;99.90;12.70;101567.00;;;;4974525;28;93056;-61
2021/09/22 06:09:33;;;;;;;4.10;2.03;;;12.60;99.90;12.80;101566.00;;;;4973322;28;109135;-63
2021/09/22 06:11:59;;;;;;;4.30;2.33;;;12.70;99.90;12.80;101557.00;;;;4973899;28;108818;-62
2021/09/22 06:14:25;;;;;;;6.77;2.60;;;12.70;99.90;12.90;101562.00;;;;4964149;28;123464;-62
2021/09/22 06:16:51;;;;;;;7.20;2.13;;;12.80;99.90;12.90;101562.00;;;;4974299;28;93838;-61
2021/09/22 06:19:16;;;;;;;6.33;2.50;;;12.90;99.90;13.00;101562.00;;;;4973300;28;111589;-63
2021/09/22 06:21:42;;;;;;;6.67;2.87;;;12.90;99.90;13.00;101563.00;;;;4974986;28;93069;-63
2021/09/22 06:24:08;;;;;;;9.93;2.33;;;13.00;99.90;13.10;101584.00;;;;4973262;28;122235;-63
2021/09/22 06:26:34;;;;;;;6.83;2.53;;;13.00;99.90;13.10;101588.00;;;;4972317;28;111123;-63
2021/09/22 06:28:59;;;;;;;5.30;2.50;;;13.00;99.90;13.20;101586.00;;;;4972973;28;110296;-63
2021/09/22 06:31:25;;;;;;;8.87;2.47;;;13.10;99.90;13.20;101599.00;;;;4974209;28;108907;-62
2021/09/22 06:33:51;;;;;;;6.23;2.30;;;13.10;99.90;13.30;101584.00;;;;4972115;28;124338;-63
2021/09/22 06:36:17;;;;;;;5.73;2.73;;;13.20;99.90;13.30;101580.00;;;;4973972;28;94028;-64
2021/09/22 06:38:42;;;;;;;3.47;2.27;;;13.30;99.90;13.40;101583.00;;;;4974144;28;92921;-63
2021/09/22 06:41:08;;;;;;;5.40;2.63;;;13.30;99.90;13.50;101588.00;;;;4973230;28;96085;-64
2021/09/22 06:43:34;;;;;;;8.57;3.20;;;13.40;99.90;13.60;101599.00;;;;4972610;28;123774;-63
2021/09/22 06:46:00;;;;;;;9.00;2.37;;;13.50;99.90;13.60;101598.00;;;;4974483;28;93141;-63
2021/09/22 06:48:26;;;;;;;4.93;2.03;;;13.60;99.90;13.70;101598.00;;;;4973209;28;92702;-65
2021/09/22 06:50:52;;;;;;;6.13;2.30;;;13.60;99.90;13.80;101596.00;;;;4974692;28;92010;-65
2021/09/22 06:53:18;;;;;;;7.33;2.00;;;13.70;99.90;13.80;101592.00;;;;4972505;28;120469;-62
2021/09/22 06:55:43;;;;;;;4.53;1.80;;;13.80;99.90;13.80;101599.00;;;;4972669;28;120944;-63
2021/09/22 06:58:09;;;;;;;5.40;2.37;;;13.80;99.90;13.90;101599.00;;;;4972419;28;107785;-66
2021/09/22 07:00:36;;;;;;;5.13;2.00;;;13.80;99.90;13.90;101597.00;;;;4973179;28;102534;-65
2021/09/22 07:03:05;;;;;;;11.50;1.53;;;13.90;99.90;14.00;101595.00;;;;4973523;28;93868;-64
2021/09/22 07:05:31;;;;;;;6.73;1.87;;;13.90;99.90;14.00;101594.00;;;;4974215;28;93944;-65
2021/09/22 07:07:57;;;;;;;7.50;2.40;;;13.90;99.90;14.00;101604.00;;;;4973563;28;92818;-64
2021/09/22 07:10:23;;;;;;;8.33;2.50;;;14.00;99.90;14.10;101598.00;;;;4972766;28;108769;-64
2021/09/22 07:12:50;;;;;;;4.77;1.63;;;14.00;99.90;14.10;101600.00;;;;4972858;28;94084;-64
2021/09/22 07:15:16;;;;;;;4.37;2.00;;;14.00;99.90;14.10;101596.00;;;;4973490;28;92811;-64
2021/09/22 07:17:42;;;;;;;4.07;2.00;;;14.10;99.90;14.20;101605.00;;;;4973943;28;92809;-63
2021/09/22 07:20:09;;;;;;;4.97;1.23;;;14.10;99.90;14.30;101594.00;;;;4973038;28;108339;-64
2021/09/22 07:22:34;;;;;;;3.50;1.80;;;14.20;99.90;14.50;101594.00;;;;4972628;28;95010;-64
2021/09/22 07:25:00;;;;;;;5.37;2.27;;;14.40;99.90;14.60;101599.00;;;;4973147;28;95035;-64
2021/09/22 07:27:27;;;;;;;3.57;1.63;;;14.50;99.90;14.80;101600.00;;;;4972987;28;92710;-64
2021/09/22 07:29:53;;;;;;;8.98;1.85;;;14.60;99.90;14.90;101616.00;;;;4971891;28;92923;-65
2021/09/22 07:32:19;;;;;;;10.15;2.42;;;14.80;99.90;15.10;101607.00;;;;4972611;28;93767;-64
2021/09/22 07:34:45;;;;;;;7.63;1.45;;;14.90;99.90;15.20;101620.00;;;;4972984;28;93507;-65
2021/09/22 07:37:11;;;;;;;6.87;2.13;;;15.00;99.90;15.30;101615.00;;;;4972257;28;111349;-64
2021/09/22 07:39:40;;;;;;;2.72;1.60;;;15.20;99.90;15.40;101624.00;;;;4972537;28;92106;-65
2021/09/22 07:42:11;;;;;;;2.00;1.80;;;15.30;99.90;15.40;101624.00;;;;4973489;28;93096;-64
2021/09/22 07:44:36;;;;;;;3.42;1.75;;;15.30;99.90;15.40;101622.00;;;;4972775;28;93049;-65
2021/09/22 07:47:02;;;;;;;2.50;1.70;;;15.30;99.90;15.40;101631.00;;;;4972604;28;93944;-64
2021/09/22 07:49:28;;;;;;;2.25;2.05;;;15.40;99.90;15.40;101630.00;;;;4972584;28;105550;-63
2021/09/22 07:51:53;;;;;;;4.13;1.85;;;15.30;99.90;15.40;101636.00;;;;4971589;28;122610;-63
2021/09/22 07:54:19;;;;;;;4.60;1.67;;;15.30;99.90;15.40;101640.00;;;;4972643;28;93463;-64
2021/09/22 07:56:45;;;;;;;6.85;1.73;;;15.30;99.90;15.40;101644.00;;;;4972560;28;109276;-64
2021/09/22 07:59:11;;;;;;;5.55;1.58;;;15.30;99.90;15.40;101654.00;;;;4971532;28;108435;-64
2021/09/22 08:01:36;;;;;;;2.22;1.80;;;15.40;99.90;15.40;101650.00;;;;4971965;28;116106;-64
2021/09/22 08:04:03;;;;;;;4.90;2.92;;;15.30;99.90;15.50;101653.00;;;;4973552;28;91988;-64
2021/09/22 08:06:29;;;;;;;6.85;1.85;;;15.40;99.90;15.60;101656.00;;;;4979253;28;93145;-64
2021/09/22 08:08:54;;;;;;;6.18;1.77;;;15.40;99.90;15.60;101646.00;;;;4973316;28;94346;-64
2021/09/22 08:11:20;;;;;;;3.47;1.60;;;15.80;99.90;15.70;101646.00;;;;4991111;28;125026;-66
2021/09/22 08:13:46;;;;;;;8.75;2.45;;;15.60;99.90;15.70;101648.00;;;;4985327;28;94107;-64
2021/09/22 08:16:12;;;;;;;5.28;1.90;;;15.60;99.90;15.80;101655.00;;;;4972105;28;95048;-64
2021/09/22 08:18:38;;;;;;;6.63;2.03;;;15.60;99.90;15.80;101649.00;;;;4971854;28;93316;-65
2021/09/22 08:21:03;;;;;;;4.53;2.08;;;15.70;99.90;15.80;101661.00;;;;4970141;28;93108;-65
2021/09/22 08:23:29;;;;;;;14.13;2.67;;;15.70;99.90;15.90;101650.00;;;;4971160;28;122591;-64
2021/09/22 08:25:55;;;;;;;6.47;2.25;;;15.80;99.90;15.90;101646.00;;;;4969607;28;94871;-65
2021/09/22 08:28:21;;;;;;;5.63;1.88;;;15.80;99.90;15.90;101657.00;;;;4981078;28;92418;-64
2021/09/22 08:30:46;;;;;;;6.20;1.88;;;15.80;99.90;15.90;101655.00;;;;4971308;28;123641;-64
2021/09/22 08:33:12;;;;;;;1.65;1.17;;;15.80;99.90;15.90;101654.00;;;;4970832;28;123379;-65
2021/09/22 08:35:39;;;;;;;1.50;1.17;;;15.80;99.90;16.00;101655.00;;;;4972710;28;93705;-64
2021/09/22 08:38:05;;;;;;;5.93;1.95;;;15.90;99.90;16.10;101653.00;;;;4971770;28;108901;-64
2021/09/22 08:40:30;;;;;;;1.48;1.23;;;15.90;99.90;16.10;101640.00;;;;4972328;28;93353;-65
2021/09/22 08:42:56;;;;;;;7.22;1.77;;;16.00;99.90;16.20;101654.00;;;;4971266;28;124420;-65
2021/09/22 08:45:22;;;;;;;1.75;1.52;;;16.40;99.90;16.30;101658.00;;;;4953880;28;102865;-65
2021/09/22 08:47:48;;;;;;;5.18;1.40;;;16.10;99.90;16.40;101663.00;;;;4957783;28;92885;-64
2021/09/22 08:50:18;;;;;;;4.78;1.55;;;16.20;99.90;16.40;101665.00;;;;4973067;28;121966;-64
2021/09/22 08:52:45;;;;;;;6.22;1.40;;;16.30;99.90;16.50;101660.00;;;;4972124;28;93181;-65
2021/09/22 08:55:12;;;;;;;4.20;1.63;;;16.30;99.90;16.50;101660.00;;;;4972108;28;92798;-65
2021/09/22 08:57:38;;;;;;;4.22;1.80;;;16.40;99.90;16.50;101660.00;;;;4976537;28;92893;-64
2021/09/22 09:00:10;;;;;;;13.68;2.05;;;16.40;99.90;16.50;101659.00;;;;4974967;28;104208;-64
2021/09/22 09:02:47;;;;;;;4.97;1.23;;;16.40;99.90;16.50;101667.00;;;;4975046;28;104922;-64
2021/09/22 09:05:19;;;;;;;3.75;1.73;;;16.40;99.90;16.50;101659.00;;;;4976581;28;92672;-63
2021/09/22 09:08:14;;;;;;;8.65;2.25;;;16.40;99.90;16.40;101667.00;;;;4975540;28;92775;-64
2021/09/22 09:10:40;;;;;;;3.20;1.50;;;16.30;99.90;16.30;101657.00;;;;4972741;28;123285;-65
2021/09/22 09:13:09;;;;;;;6.47;1.58;;;16.30;99.90;16.30;101666.00;;;;4974409;28;122646;-65
2021/09/22 09:15:46;;;;;;;9.02;1.88;;;16.20;99.90;16.30;101663.00;;;;4975549;28;92755;-65
2021/09/22 09:18:21;;;;;;;5.10;1.83;;;16.20;99.90;16.30;101663.00;;;;4975660;28;93312;-65
2021/09/22 09:20:54;;;;;;;5.25;1.67;;;16.20;99.90;16.40;101672.00;;;;4957550;28;93486;-64
2021/09/22 09:23:22;;;;;;;4.20;1.52;;;16.30;99.90;16.50;101668.00;;;;4974662;28;93737;-64
2021/09/22 09:26:02;;;;;;;4.18;1.70;;;16.40;99.90;16.60;101667.00;;;;4974856;28;93908;-65
2021/09/22 09:28:35;;;;;;;1.88;1.25;;;16.40;99.90;16.70;101673.00;;;;4975333;28;92894;-64
2021/09/22 09:31:09;;;;;;;2.97;1.73;;;16.50;99.90;16.80;101677.00;;;;4956934;28;106710;-65
2021/09/22 09:33:39;;;;;;;3.20;1.63;;;16.60;99.90;16.90;101687.00;;;;4975305;28;93165;-65
2021/09/22 09:36:45;;;;;;;7.53;1.90;;;16.70;99.90;17.00;101687.00;;;;4975609;28;92755;-65
2021/09/22 09:39:20;;;;;;;1.60;1.27;;;16.80;99.90;17.00;101687.00;;;;4912079;28;92693;-66
2021/09/22 09:41:52;;;;;;;7.00;1.30;;;16.80;99.90;17.00;101682.00;;;;4967750;28;93621;-65
2021/09/22 09:44:27;;;;;;;9.32;1.75;;;16.80;99.90;17.00;101684.00;;;;4971582;28;95728;-65
2021/09/22 09:47:05;;;;;;;3.63;1.35;;;16.90;99.90;17.10;101683.00;;;;4975879;28;92668;-65
2021/09/22 09:49:31;;;;;;;7.25;1.83;;;16.90;99.90;17.20;101687.00;;;;4975200;28;92701;-64
2021/09/22 09:52:00;;;;;;;3.40;1.65;;;17.00;99.90;17.30;101681.00;;;;4973891;28;116359;-65
2021/09/22 09:54:36;;;;;;;11.50;1.92;;;17.10;99.90;17.40;101671.00;;;;4974719;28;94677;-65
2021/09/22 09:57:20;;;;;;;3.58;1.48;;;17.20;99.90;17.40;101675.00;;;;4975607;28;92946;-65
2021/09/22 09:59:49;;;;;;;2.85;1.52;;;17.30;99.90;17.60;101676.00;;;;4975141;28;92679;-66
2021/09/22 10:02:32;;;;;;;8.50;1.42;;;17.40;99.90;17.70;101677.00;;;;4974482;28;92808;-66
2021/09/22 10:04:59;;;;;;;4.05;1.45;;;17.50;99.90;17.90;101675.00;;;;4974454;28;93762;-66
2021/09/22 10:07:26;;;;;;;3.28;1.35;;;17.60;99.90;18.00;101670.00;;;;4975265;28;92999;-65
2021/09/22 10:09:52;;;;;;;3.38;1.98;;;17.80;99.90;18.10;101657.00;;;;4973201;28;92129;-64
2021/09/22 10:12:19;;;;;;;6.55;1.23;;;17.90;99.90;18.30;101663.00;;;;4974879;28;93320;-65
2021/09/22 10:14:47;;;;;;;3.78;1.77;;;18.00;99.90;18.40;101665.00;;;;4974254;28;93380;-65
2021/09/22 10:17:15;;;;;;;3.80;1.67;;;18.10;99.90;18.40;101664.00;;;;4954648;28;93945;-65
2021/09/22 10:19:45;;;;;;;2.22;1.40;;;18.20;99.60;18.40;101671.00;;;;4949493;28;92981;-65
2021/09/22 10:22:11;;;;;;;2.67;1.60;;;18.30;99.90;18.50;101667.00;;;;4974457;28;94227;-65
2021/09/22 10:24:37;;;;;;;4.13;1.77;;;18.30;99.00;18.50;101666.00;;;;4974542;28;103878;-65
2021/09/22 10:27:04;;;;;;;3.50;1.70;;;18.30;99.00;18.50;101672.00;;;;4974619;28;109836;-65
2021/09/22 10:29:37;;;;;;;5.03;1.35;;;18.30;98.10;18.50;101668.00;;;;4973847;28;92710;-66
2021/09/22 10:32:05;;;;;;;4.10;1.38;;;18.30;98.20;18.40;101665.00;;;;4958967;28;93833;-66
2021/09/22 10:34:36;;;;;;;5.70;1.30;;;18.30;98.60;18.50;101670.00;;;;4974535;28;93076;-67
2021/09/22 10:37:25;;;;;;;3.78;1.42;;;18.30;99.00;18.60;101668.00;;;;4955111;28;92866;-64
2021/09/22 10:39:51;;;;;;;5.93;1.73;;;18.40;98.10;18.60;101665.00;;;;4957081;28;92584;-64
2021/09/22 10:42:29;;;;;;;5.60;1.40;;;18.40;98.40;18.70;101670.00;;;;4972448;28;123646;-68
2021/09/22 10:45:22;;;;;;;5.22;1.85;;;18.50;99.00;18.80;101667.00;;;;4973975;28;94327;-68